Pagrindinis puslapis
METAR-TAF:

METAR-TAF

Oro uostai :

Ipatinga, Minas Žeraisas, Brazilija

platuma: 19-28-14S, ilguma: 042-29-17W, Aukštis: 239 m

Dabartinis oras

Ataskaita buvo paskelbta 1 valandą ir 12 minutes, ne 13:00 UTC
Vėjas 2 kt iš Vakarų/Pietvakarių
Temperatūra 26°C
Drėgmė 79%
Slėgis 1013 hPa
Matomumas 10 km arba daugiau
Su prošvaistėmis ne aukštis 1200 ft
Su prošvaistėmis ne aukštis 4000 ft
Apsiniaukę ne aukštis 8000 ft

METAR: SBIP 071300Z 25002KT 9999 BKN012 BKN040 OVC080 26/22 Q1013

Laikas: 11:12 (14:12 UTC)


TAF: trūkstamas

Orai ataskaitas ir orų prognozės (METAR, TAF).

turimą stotys yra geltonos ir raudonos taškus žemėlapyje.

Perkelti pele per norėdami pamatyti stoties vardą.

Tada spustelėkite, norėdami matyti oro stebėjimo ir prognozės.

Norėdami pakeisti žemėlapį: spustelėkite ant žalios mygtukų su juodo kryžiaus žemyn,; žalią mygtuką su brūkšneliu, jei norite nutolinti; arba žalių rodyklių gretimoms žemėlapius.


METAR-TAF: